createdAt,value
2022-09-20T00:02:32.581Z,73.40
2022-09-20T00:05:37.084Z,73.30
2022-09-20T00:08:41.306Z,73.40
2022-09-20T00:11:44.877Z,73.50
2022-09-20T00:14:50.420Z,74.10
2022-09-20T00:17:54.028Z,73.50
2022-09-20T00:20:57.648Z,73.50
2022-09-20T00:24:01.826Z,73.50
2022-09-20T00:27:05.895Z,73.60
2022-09-20T00:30:11.936Z,73.60
2022-09-20T00:33:15.555Z,73.60
2022-09-20T00:36:17.244Z,73.60
2022-09-20T00:39:20.885Z,73.60
2022-09-20T00:42:29.342Z,73.60
2022-09-20T00:45:35.773Z,73.60
2022-09-20T00:48:39.400Z,73.70
2022-09-20T00:51:46.980Z,73.70
2022-09-20T00:54:50.753Z,73.70
2022-09-20T00:57:55.224Z,73.70
2022-09-20T01:01:01.361Z,73.70
2022-09-20T01:04:05.915Z,73.80
2022-09-20T01:07:11.352Z,73.70
2022-09-20T01:10:15.224Z,73.80
2022-09-20T01:13:18.810Z,73.80
2022-09-20T01:16:26.474Z,73.80
2022-09-20T01:19:39.377Z,73.90
2022-09-20T01:22:54.961Z,74.00
2022-09-20T01:26:29.433Z,73.90
2022-09-20T01:29:50.442Z,74.00
2022-09-20T01:33:04.073Z,73.90
2022-09-20T01:36:10.583Z,74.60
2022-09-20T01:39:24.461Z,74.10
2022-09-20T01:42:34.462Z,74.10
2022-09-20T01:45:42.931Z,74.10
2022-09-20T01:48:46.754Z,74.10
2022-09-20T01:52:20.143Z,74.10
2022-09-20T01:55:59.802Z,74.40
2022-09-20T01:59:24.339Z,74.30
2022-09-20T02:02:45.178Z,74.30
2022-09-20T02:06:15.077Z,74.30
2022-09-20T02:09:51.513Z,74.30
2022-09-20T02:12:57.254Z,74.40
2022-09-20T02:16:21.272Z,74.40
2022-09-20T02:19:58.279Z,74.50
2022-09-20T02:23:17.652Z,74.50
2022-09-20T02:26:34.385Z,74.50
2022-09-20T02:29:49.977Z,74.50
2022-09-20T02:33:11.612Z,74.60
2022-09-20T02:36:32.210Z,74.70
2022-09-20T02:39:38.860Z,74.70
2022-09-20T02:42:48.913Z,74.70
2022-09-20T02:46:01.003Z,74.80
2022-09-20T02:49:12.626Z,74.90
2022-09-20T02:52:27.605Z,74.90
2022-09-20T02:55:42.122Z,74.90
2022-09-20T02:58:55.649Z,75.00
2022-09-20T03:02:10.058Z,75.00
2022-09-20T03:05:20.049Z,75.00
2022-09-20T03:08:36.488Z,75.00
2022-09-20T03:11:50.192Z,75.10
2022-09-20T03:15:05.849Z,75.10
2022-09-20T03:18:13.380Z,75.20
2022-09-20T03:21:29.827Z,75.20
2022-09-20T03:24:46.153Z,75.20
2022-09-20T03:27:57.734Z,75.30
2022-09-20T03:31:12.808Z,75.20
2022-09-20T03:34:30.812Z,75.30
2022-09-20T03:37:51.904Z,75.30
2022-09-20T03:41:30.878Z,75.30
2022-09-20T03:45:07.433Z,75.50
2022-09-20T03:48:29.034Z,75.50
2022-09-20T03:51:40.182Z,75.40
2022-09-20T03:55:05.506Z,75.50
2022-09-20T03:58:27.960Z,75.60
2022-09-20T04:01:48.470Z,75.60
2022-09-20T04:04:57.121Z,75.70
2022-09-20T04:08:12.451Z,75.60
2022-09-20T04:11:25.556Z,75.70
2022-09-20T04:14:39.392Z,75.80
2022-09-20T04:17:50.890Z,75.90
2022-09-20T04:21:00.896Z,75.80
2022-09-20T04:24:12.316Z,75.90
2022-09-20T04:27:22.908Z,75.90
2022-09-20T04:30:31.523Z,76.00
2022-09-20T04:33:41.279Z,76.00
2022-09-20T04:37:02.122Z,76.00
2022-09-20T04:40:20.468Z,76.10
2022-09-20T04:44:08.775Z,76.10
2022-09-20T04:47:42.141Z,76.30
2022-09-20T04:51:13.135Z,76.20
2022-09-20T04:54:46.955Z,76.20
2022-09-20T04:58:21.894Z,76.20
2022-09-20T05:02:11.631Z,76.90
2022-09-20T05:05:57.306Z,76.40
2022-09-20T05:09:30.638Z,76.40
2022-09-20T05:12:59.798Z,76.50
2022-09-20T05:16:07.432Z,76.50
2022-09-20T05:19:27.297Z,76.70
2022-09-20T05:23:01.870Z,76.50
2022-09-20T05:26:13.957Z,76.60
2022-09-20T05:29:26.045Z,76.50
2022-09-20T05:32:36.303Z,76.60
2022-09-20T05:35:48.530Z,76.60
2022-09-20T05:39:01.417Z,76.70
2022-09-20T05:42:17.669Z,76.70
2022-09-20T05:45:35.533Z,76.70
2022-09-20T05:48:47.593Z,76.70
2022-09-20T05:52:08.725Z,76.60
2022-09-20T05:55:36.986Z,76.70
2022-09-20T05:58:53.690Z,76.90
2022-09-20T06:02:19.727Z,76.90
2022-09-20T06:05:34.871Z,77.00
2022-09-20T06:09:01.586Z,77.00
2022-09-20T06:12:37.873Z,77.10
2022-09-20T06:15:52.164Z,77.20
2022-09-20T06:19:03.108Z,77.10
2022-09-20T06:22:17.526Z,77.00
2022-09-20T06:25:24.408Z,77.00
2022-09-20T06:28:32.189Z,77.10
2022-09-20T06:31:35.817Z,77.20
2022-09-20T06:34:41.371Z,77.30
2022-09-20T06:38:03.874Z,77.30
2022-09-20T06:41:23.241Z,77.30
2022-09-20T06:44:26.828Z,77.30
2022-09-20T06:47:30.441Z,77.30
2022-09-20T06:50:36.273Z,77.40
2022-09-20T06:53:42.418Z,77.40
2022-09-20T06:56:47.310Z,77.50
2022-09-20T06:59:51.032Z,77.50
2022-09-20T07:02:56.149Z,77.60
2022-09-20T07:06:03.749Z,77.50
2022-09-20T07:09:08.066Z,77.60
2022-09-20T07:12:11.815Z,77.70
2022-09-20T07:15:16.358Z,77.70
2022-09-20T07:18:19.982Z,77.80
2022-09-20T07:21:26.045Z,77.80
2022-09-20T07:24:31.630Z,77.80
2022-09-20T07:27:35.518Z,77.80
2022-09-20T07:30:39.158Z,77.90
2022-09-20T07:33:42.940Z,77.80
2022-09-20T07:36:48.821Z,77.80
2022-09-20T07:39:52.489Z,77.70
2022-09-20T07:42:58.342Z,77.70
2022-09-20T07:46:02.293Z,77.80
2022-09-20T07:49:08.117Z,77.80
2022-09-20T07:52:14.114Z,77.80
2022-09-20T07:55:18.030Z,77.80
2022-09-20T07:58:21.640Z,77.80
2022-09-20T08:01:25.281Z,77.70
2022-09-20T08:04:29.109Z,77.70
2022-09-20T08:07:34.826Z,77.80
2022-09-20T08:10:40.374Z,77.90
2022-09-20T08:17:09.461Z,77.80
2022-09-20T08:20:13.437Z,77.60
2022-09-20T08:23:23.850Z,77.60
2022-09-20T08:26:30.496Z,77.40
2022-09-20T08:29:34.425Z,77.20
2022-09-20T08:32:40.619Z,77.10
2022-09-20T08:35:44.245Z,77.00
2022-09-20T08:42:23.639Z,76.70
2022-09-20T08:45:35.503Z,76.70
2022-09-20T08:48:39.389Z,76.60
2022-09-20T08:51:48.648Z,76.60
2022-09-20T08:54:55.589Z,76.60
2022-09-20T08:58:06.148Z,76.50
2022-09-20T09:01:19.658Z,76.40
2022-09-20T09:04:25.106Z,76.30
2022-09-20T09:07:30.145Z,76.20
2022-09-20T09:10:43.100Z,76.20
2022-09-20T09:13:53.471Z,76.10
2022-09-20T09:16:57.346Z,75.90
2022-09-20T09:20:08.799Z,75.60
2022-09-20T09:23:24.774Z,75.50
2022-09-20T09:26:37.396Z,75.20
2022-09-20T09:29:52.136Z,75.00
2022-09-20T09:33:23.433Z,74.80
2022-09-20T09:36:28.061Z,74.50
2022-09-20T09:39:33.608Z,74.30
2022-09-20T09:42:37.586Z,74.00
2022-09-20T09:45:41.124Z,73.70
2022-09-20T09:48:49.545Z,73.50
2022-09-20T09:52:07.240Z,73.40
2022-09-20T09:55:16.703Z,72.90
2022-09-20T09:58:28.537Z,72.40
2022-09-20T10:01:41.517Z,72.70
2022-09-20T10:04:52.973Z,71.80
2022-09-20T10:08:13.118Z,72.10
2022-09-20T10:11:33.680Z,71.30
2022-09-20T10:14:52.696Z,70.90
2022-09-20T10:18:11.121Z,70.80
2022-09-20T10:21:27.926Z,70.90
2022-09-20T10:24:51.338Z,70.80
2022-09-20T10:28:08.766Z,70.50
2022-09-20T10:31:27.293Z,70.50
2022-09-20T10:35:14.230Z,70.30
2022-09-20T10:38:26.105Z,69.80
2022-09-20T10:41:54.166Z,69.80
2022-09-20T10:45:09.501Z,69.60
2022-09-20T10:48:18.648Z,69.40
2022-09-20T10:51:31.825Z,69.50
2022-09-20T10:54:52.789Z,69.20
2022-09-20T10:58:28.787Z,69.10
2022-09-20T11:01:41.955Z,68.90
2022-09-20T11:05:09.570Z,69.00
2022-09-20T11:08:18.307Z,69.00
2022-09-20T11:11:28.591Z,69.20
2022-09-20T11:14:37.302Z,69.20
2022-09-20T11:17:44.602Z,69.10
2022-09-20T11:20:53.749Z,69.20
2022-09-20T11:24:03.666Z,69.30
2022-09-20T11:27:17.894Z,69.20
2022-09-20T11:30:22.269Z,69.40
2022-09-20T11:33:30.433Z,69.70
2022-09-20T11:36:40.998Z,69.80
2022-09-20T11:39:49.715Z,69.80
2022-09-20T11:42:59.443Z,69.90
2022-09-20T11:46:07.889Z,69.80
2022-09-20T11:49:17.215Z,69.80
2022-09-20T11:52:43.125Z,69.60
2022-09-20T11:55:53.948Z,69.10
2022-09-20T11:59:01.825Z,68.90
2022-09-20T12:02:15.428Z,68.60
2022-09-20T12:05:31.581Z,68.30
2022-09-20T12:08:38.684Z,67.90
2022-09-20T12:11:42.988Z,67.90
2022-09-20T12:14:55.987Z,67.80
2022-09-20T12:18:23.493Z,67.40
2022-09-20T12:21:27.568Z,67.20
2022-09-20T12:24:33.509Z,67.30
2022-09-20T12:27:58.925Z,67.20
2022-09-20T12:31:32.907Z,66.80
2022-09-20T12:34:39.064Z,66.80
2022-09-20T12:37:43.203Z,67.00
2022-09-20T12:41:00.705Z,66.90
2022-09-20T12:44:21.254Z,66.40
2022-09-20T12:47:27.817Z,66.50
2022-09-20T12:50:46.570Z,66.50
2022-09-20T12:54:02.264Z,66.20
2022-09-20T12:57:19.514Z,65.80
2022-09-20T13:00:35.568Z,65.70
2022-09-20T13:03:41.252Z,65.70
2022-09-20T13:06:47.067Z,65.80
2022-09-20T13:09:51.828Z,65.70
2022-09-20T13:13:01.688Z,65.80
2022-09-20T13:16:08.533Z,65.70
2022-09-20T13:19:18.381Z,65.70
2022-09-20T13:22:29.774Z,65.60
2022-09-20T13:25:35.576Z,65.60
2022-09-20T13:28:41.722Z,65.50
2022-09-20T13:31:45.406Z,65.50
2022-09-20T13:35:06.844Z,65.50
2022-09-20T13:38:12.479Z,65.30
2022-09-20T13:41:17.403Z,65.50
2022-09-20T13:44:21.425Z,65.50
2022-09-20T13:47:27.179Z,65.60
2022-09-20T13:50:34.553Z,65.50
2022-09-20T13:53:41.820Z,65.60
2022-09-20T13:56:46.148Z,65.60
2022-09-20T13:59:51.973Z,65.60
2022-09-20T14:02:56.710Z,65.60
2022-09-20T14:06:01.913Z,65.70
2022-09-20T14:09:11.275Z,65.60
2022-09-20T14:12:16.912Z,65.50
2022-09-20T14:15:20.835Z,65.60
2022-09-20T14:18:24.519Z,65.60
2022-09-20T14:21:32.647Z,65.80
2022-09-20T14:24:39.161Z,65.90
2022-09-20T14:27:42.737Z,65.70
2022-09-20T14:30:47.796Z,65.70
2022-09-20T14:33:55.291Z,65.70
2022-09-20T14:37:07.000Z,65.70
2022-09-20T14:40:26.249Z,65.70
2022-09-20T14:43:33.200Z,65.70
2022-09-20T14:46:38.515Z,65.80
2022-09-20T14:49:44.367Z,65.80
2022-09-20T14:52:48.002Z,65.80
2022-09-20T14:56:10.018Z,65.80
2022-09-20T14:59:26.326Z,65.80
2022-09-20T15:02:30.382Z,65.80
2022-09-20T15:05:34.239Z,65.90
2022-09-20T15:08:38.688Z,65.90
2022-09-20T15:11:46.469Z,65.80
2022-09-20T15:14:50.511Z,65.80
2022-09-20T15:17:54.178Z,65.70
2022-09-20T15:20:57.838Z,65.70
2022-09-20T15:24:01.543Z,65.60
2022-09-20T15:27:07.384Z,65.70
2022-09-20T15:30:12.972Z,65.60
2022-09-20T15:33:16.828Z,65.70
2022-09-20T15:36:20.491Z,65.70
2022-09-20T15:39:24.337Z,65.80
2022-09-20T15:42:29.885Z,65.80
2022-09-20T15:45:34.449Z,65.80
2022-09-20T15:48:41.148Z,65.90
2022-09-20T15:51:45.761Z,65.90
2022-09-20T15:54:49.368Z,65.90
2022-09-20T15:57:54.923Z,66.00
2022-09-20T16:01:05.346Z,66.00
2022-09-20T16:04:09.931Z,66.00
2022-09-20T16:07:15.490Z,66.10
2022-09-20T16:10:19.185Z,66.10
2022-09-20T16:13:24.721Z,66.30
2022-09-20T16:16:30.459Z,66.20
2022-09-20T16:19:34.089Z,66.20
2022-09-20T16:22:37.701Z,66.30
2022-09-20T16:25:41.348Z,66.40
2022-09-20T16:28:48.512Z,66.40
2022-09-20T16:31:53.200Z,66.40
2022-09-20T16:34:57.942Z,66.40
2022-09-20T16:38:01.538Z,66.50
2022-09-20T16:41:05.498Z,66.60
2022-09-20T16:44:12.365Z,66.60
2022-09-20T16:47:23.394Z,66.70
2022-09-20T16:50:27.027Z,66.70
2022-09-20T16:53:30.698Z,66.80
2022-09-20T16:56:36.735Z,66.90
2022-09-20T16:59:42.321Z,66.90
2022-09-20T17:02:47.972Z,67.00
2022-09-20T17:05:52.236Z,67.10
2022-09-20T17:08:59.290Z,67.10
2022-09-20T17:12:03.687Z,67.10
2022-09-20T17:15:12.437Z,67.20
2022-09-20T17:18:16.069Z,67.30
2022-09-20T17:21:19.918Z,67.40
2022-09-20T17:24:24.584Z,67.50
2022-09-20T17:27:28.235Z,67.60
2022-09-20T17:30:33.757Z,67.60
2022-09-20T17:33:38.026Z,67.80
2022-09-20T17:36:43.577Z,67.80
2022-09-20T17:39:47.373Z,67.90
2022-09-20T17:42:51.180Z,68.00
2022-09-20T17:45:58.170Z,68.00
2022-09-20T17:49:03.558Z,68.00
2022-09-20T17:52:07.792Z,68.10
2022-09-20T17:55:11.637Z,68.20
2022-09-20T17:58:15.192Z,68.30
2022-09-20T18:01:21.652Z,68.30
2022-09-20T18:04:25.723Z,68.40
2022-09-20T18:07:29.613Z,68.40
2022-09-20T18:10:33.606Z,68.50
2022-09-20T18:13:37.714Z,68.40
2022-09-20T18:16:44.500Z,68.50
2022-09-20T18:19:49.120Z,68.50
2022-09-20T18:22:52.737Z,68.60
2022-09-20T18:26:09.528Z,68.60
2022-09-20T18:29:16.077Z,68.70
2022-09-20T18:32:21.599Z,68.70
2022-09-20T18:35:25.292Z,68.80
2022-09-20T18:38:28.917Z,68.80
2022-09-20T18:41:34.377Z,68.70
2022-09-20T18:44:42.530Z,68.80
2022-09-20T18:47:48.021Z,68.80
2022-09-20T18:50:59.285Z,68.80
2022-09-20T18:54:03.469Z,68.90
2022-09-20T18:57:07.256Z,69.00
2022-09-20T19:00:13.557Z,69.10
2022-09-20T19:03:24.105Z,69.00
2022-09-20T19:06:37.571Z,69.10
2022-09-20T19:09:47.593Z,69.10
2022-09-20T19:12:59.602Z,69.20
2022-09-20T19:16:13.079Z,69.20
2022-09-20T19:19:35.169Z,69.20
2022-09-20T19:22:52.235Z,69.30
2022-09-20T19:26:04.975Z,69.40
2022-09-20T19:29:19.694Z,69.40
2022-09-20T19:32:25.625Z,69.50
2022-09-20T19:35:37.579Z,69.50
2022-09-20T19:38:46.558Z,69.50
2022-09-20T19:41:57.841Z,69.60
2022-09-20T19:45:15.484Z,69.70
2022-09-20T19:48:24.031Z,69.70
2022-09-20T19:51:34.372Z,69.80
2022-09-20T19:54:38.374Z,69.80
2022-09-20T19:57:44.195Z,69.80
2022-09-20T20:00:48.745Z,69.80
2022-09-20T20:03:53.113Z,69.80
2022-09-20T20:07:05.375Z,70.00
2022-09-20T20:10:19.641Z,70.10
2022-09-20T20:13:39.970Z,70.10
2022-09-20T20:16:59.737Z,70.10
2022-09-20T20:20:19.515Z,70.10
2022-09-20T20:23:49.958Z,70.20
2022-09-20T20:26:53.805Z,70.30
2022-09-20T20:29:57.582Z,70.20
2022-09-20T20:33:03.903Z,70.30
2022-09-20T20:36:08.318Z,70.40
2022-09-20T20:39:15.181Z,70.40
2022-09-20T20:42:19.014Z,70.40
2022-09-20T20:45:22.590Z,70.40
2022-09-20T20:48:26.164Z,70.50
2022-09-20T20:51:32.301Z,70.50
2022-09-20T20:54:37.790Z,70.60
2022-09-20T20:57:41.429Z,70.70
2022-09-20T21:00:45.009Z,71.30
2022-09-20T21:03:51.414Z,70.70
2022-09-20T21:06:55.049Z,70.70
2022-09-20T21:10:00.964Z,70.70
2022-09-20T21:13:04.566Z,70.80
2022-09-20T21:16:10.464Z,70.90
2022-09-20T21:19:16.215Z,71.00
2022-09-20T21:22:20.370Z,71.10
2022-09-20T21:25:26.179Z,71.20
2022-09-20T21:28:30.052Z,71.30
2022-09-20T21:31:35.830Z,71.30
2022-09-20T21:34:40.195Z,71.40
2022-09-20T21:37:46.194Z,71.50
2022-09-20T21:40:54.260Z,71.60
2022-09-20T21:43:59.806Z,71.70
2022-09-20T21:47:04.230Z,71.80
2022-09-20T21:50:09.741Z,71.80
2022-09-20T21:53:13.371Z,71.80
2022-09-20T21:56:18.986Z,71.90
2022-09-20T21:59:22.678Z,71.90
2022-09-20T22:02:26.305Z,71.90
2022-09-20T22:05:30.214Z,71.90
2022-09-20T22:08:33.893Z,72.00
2022-09-20T22:11:42.957Z,71.90
2022-09-20T22:14:46.878Z,72.00
2022-09-20T22:17:50.292Z,72.00
2022-09-20T22:21:03.855Z,72.00
2022-09-20T22:24:09.848Z,71.90
2022-09-20T22:27:15.382Z,72.00
2022-09-20T22:30:19.166Z,72.00
2022-09-20T22:33:22.810Z,72.00
2022-09-20T22:36:30.058Z,72.10
2022-09-20T22:39:33.667Z,72.20
2022-09-20T22:42:39.290Z,72.20
2022-09-20T22:45:42.916Z,72.20
2022-09-20T22:48:48.289Z,72.30
2022-09-20T22:51:51.689Z,72.30
2022-09-20T22:54:55.334Z,72.30
2022-09-20T22:58:00.941Z,72.20
2022-09-20T23:01:06.328Z,72.30
2022-09-20T23:04:12.766Z,72.30
2022-09-20T23:07:16.358Z,72.40
2022-09-20T23:10:19.965Z,72.40
2022-09-20T23:13:25.587Z,72.50
2022-09-20T23:16:31.431Z,72.50
2022-09-20T23:19:35.073Z,72.50
2022-09-20T23:22:38.710Z,72.60
2022-09-20T23:25:42.347Z,72.60
2022-09-20T23:28:53.375Z,72.60
2022-09-20T23:31:57.043Z,72.80
2022-09-20T23:35:00.707Z,72.70
2022-09-20T23:38:04.310Z,72.80
2022-09-20T23:41:10.146Z,72.80
2022-09-20T23:44:15.674Z,72.90
2022-09-20T23:47:19.313Z,72.90
2022-09-20T23:50:22.900Z,72.90
2022-09-20T23:53:26.789Z,72.90
2022-09-20T23:56:30.533Z,73.00
2022-09-20T23:59:36.662Z,73.00
